Airfield :
LOGIN :

Register | Disclaimer

   EN    FR    IT 

 










Legend :    VFR   Marginal VFR   IFR   Intensive IFR   Very Intensive IFR
Visi :
Ceiling :
>= 8 km
>= 3000ft
5 to 8 km
1000 to 3000 ft
1500m to 5 km
500 to 1000 ft
800 to 1500m
200 to 500 ft
< 800m
< 200 ft
Symbols :   Thunderstorms  Fog  Heavy snow  Heavy precipitations  Wind > 20 kt
SIGMETs :     Misc.  Thunderstorms  Icing  Turbulence  Mountain Waves  Volcanic Ashes






- Airport Elevation : 226 ft
- IATA code : BEX


EGUB - RAF Benson

CURRENT METAR :
  • 150850Z 20007KT CAVOK 24/13 Q1002 NOSIG RMK BLU BLU

EXPIRED METARs :
  • 150820Z 22008KT CAVOK 23/13 Q1002 NOSIG RMK BLU BLU
  • 150750Z 19005KT CAVOK 21/15 Q1002 NOSIG RMK BLU BLU
  • 150720Z 19007KT CAVOK 20/15 Q1002 NOSIG RMK BLU BLU
  • 150650Z 19007KT CAVOK 20/15 Q1002 NOSIG RMK BLU BLU

TAF TAF EGUB
Valid from the 15 at 09:00 until the 15 at 18:00 UTC


150749Z 1509/1518 21007KT CAVOK
PROB30
TEMPO 1511/1518 7000 SHRA SCT060CB
ATIS : +44 1491-837766 (x7524)



MET'MAP, your aeronautical weather chart ! - Copyright ORBIFLY December 2007 - Disclaimer

ORBIFLY MET'MAP TEAM :

Programming & Development : Alexandra Zaïnal
Original concept : Baudouin d'Aumeries
Technical & hardware support : Manuel Goepfert
Assistance : Marc-Olivier Méhu




SOURCES & CREDITS :

   NOAA